Time;durP1;ratioP1;P1;durP2;ratioP2;P2;SDS_P1;SDS_P2;PMS_P1;PMS_P2;Temp;Humidity;BMP_temperature;BMP_pressure;BME280_temperature;BME280_humidity;BME280_pressure;Samples;Min_cycle;Max_cycle;Signal;HPM_P1;HPM_P2
2022/03/30 00:01:58;;;;;;;1.10;0.80;;;21.00;34.20;;;;;;5077016;28;20052;-79
2022/03/30 00:04:24;;;;;;;1.27;0.80;;;21.00;34.20;;;;;;5095264;28;20056;-79
2022/03/30 00:06:49;;;;;;;1.98;1.00;;;21.00;34.10;;;;;;5095154;28;20063;-79
2022/03/30 00:09:15;;;;;;;2.53;1.08;;;21.00;34.20;;;;;;5095007;28;20127;-79
2022/03/30 00:11:41;;;;;;;0.98;0.70;;;21.00;34.20;;;;;;5059743;28;20090;-79
2022/03/30 00:14:06;;;;;;;1.05;0.70;;;21.00;34.20;;;;;;5094462;28;20056;-79
2022/03/30 00:16:34;;;;;;;1.15;0.70;;;21.00;34.10;;;;;;5095336;28;20052;-79
2022/03/30 00:19:01;;;;;;;0.80;0.75;;;21.00;34.70;;;;;;5094716;28;20052;-79
2022/03/30 00:21:26;;;;;;;1.27;0.90;;;21.00;34.10;;;;;;5095000;28;20073;-79
2022/03/30 00:23:52;;;;;;;1.30;0.95;;;21.00;34.10;;;;;;5094913;28;20423;-79
2022/03/30 00:26:19;;;;;;;1.00;0.80;;;21.00;34.10;;;;;;5094767;28;20048;-79
2022/03/30 00:28:44;;;;;;;1.42;0.93;;;21.00;34.20;;;;;;5076819;28;20055;-79
2022/03/30 00:31:12;;;;;;;1.35;0.82;;;21.00;34.10;;;;;;5094789;28;20046;-79
2022/03/30 00:33:38;;;;;;;0.70;0.60;;;21.00;34.10;;;;;;5094749;28;20047;-79
2022/03/30 00:36:05;;;;;;;1.50;0.70;;;21.00;34.10;;;;;;5094536;28;20062;-79
2022/03/30 00:38:31;;;;;;;1.25;0.80;;;21.00;34.10;;;;;;5093459;28;20369;-79
2022/03/30 00:40:56;;;;;;;1.20;0.60;;;21.00;34.10;;;;;;5074803;28;20060;-79
2022/03/30 00:43:22;;;;;;;1.25;0.70;;;21.00;34.20;;;;;;5075550;28;20559;-79
2022/03/30 00:45:47;;;;;;;1.40;0.80;;;21.00;34.10;;;;;;5094884;28;20120;-79
2022/03/30 00:48:13;;;;;;;1.20;0.75;;;21.00;34.10;;;;;;5094243;28;20165;-79
2022/03/30 00:50:39;;;;;;;2.10;0.82;;;21.00;34.10;;;;;;5094476;28;20488;-79
2022/03/30 00:53:05;;;;;;;1.33;0.80;;;21.00;34.10;;;;;;5094125;28;20059;-79
2022/03/30 00:55:31;;;;;;;0.85;0.77;;;21.00;34.10;;;;;;5076131;28;20051;-79
2022/03/30 00:57:58;;;;;;;0.90;0.60;;;21.00;34.10;;;;;;5058318;28;20416;-79
2022/03/30 01:00:23;;;;;;;0.90;0.70;;;21.00;34.10;;;;;;5094299;28;20495;-79
2022/03/30 01:02:51;;;;;;;0.70;0.70;;;21.00;34.10;;;;;;5094242;28;20162;-79
2022/03/30 01:05:17;;;;;;;1.05;0.80;;;21.00;34.10;;;;;;5076015;28;20181;-79
2022/03/30 01:07:43;;;;;;;0.80;0.80;;;21.00;34.10;;;;;;5094228;28;20109;-79
2022/03/30 01:10:10;;;;;;;0.98;0.88;;;21.00;34.10;;;;;;5074564;28;20139;-79
2022/03/30 01:12:39;;;;;;;0.82;0.80;;;21.00;34.10;;;;;;5092835;28;20172;-79
2022/03/30 01:15:09;;;;;;;1.95;0.90;;;21.00;34.10;;;;;;5094263;28;20131;-79
2022/03/30 01:17:37;;;;;;;0.93;0.80;;;21.00;34.10;;;;;;5094072;28;20062;-79
2022/03/30 01:20:06;;;;;;;1.85;0.80;;;21.00;34.10;;;;;;5093928;28;20063;-79
2022/03/30 01:22:33;;;;;;;0.75;0.75;;;21.00;34.10;;;;;;5093968;28;20201;-79
2022/03/30 01:24:59;;;;;;;1.15;0.80;;;21.00;34.10;;;;;;5075148;28;20059;-79
2022/03/30 01:27:25;;;;;;;1.90;0.90;;;21.00;34.10;;;;;;5093970;28;20051;-79
2022/03/30 01:32:36;;;;;;;1.20;0.90;;;21.00;34.10;;;;;;5075682;28;20048;-79
2022/03/30 01:35:04;;;;;;;0.80;0.60;;;21.00;34.10;;;;;;5093778;28;20056;-79
2022/03/30 01:37:31;;;;;;;1.83;0.80;;;21.00;34.10;;;;;;5075392;28;20055;-79
2022/03/30 01:39:58;;;;;;;1.10;0.82;;;21.00;34.10;;;;;;5093662;28;20056;-79
2022/03/30 01:42:25;;;;;;;0.73;0.70;;;21.00;34.10;;;;;;5093657;28;20051;-79
2022/03/30 01:44:50;;;;;;;1.08;0.90;;;21.00;34.10;;;;;;5075364;28;20519;-79
2022/03/30 01:47:16;;;;;;;1.20;0.77;;;21.00;34.00;;;;;;5093504;28;20067;-78
2022/03/30 01:49:42;;;;;;;1.02;0.73;;;21.00;34.00;;;;;;5093605;28;20056;-79
2022/03/30 01:52:08;;;;;;;1.65;0.90;;;21.00;34.00;;;;;;5093493;28;20082;-79
2022/03/30 01:54:36;;;;;;;1.00;0.80;;;21.00;34.10;;;;;;5093410;28;20048;-79
2022/03/30 01:57:02;;;;;;;1.73;0.93;;;21.00;34.10;;;;;;5093376;28;20059;-78
2022/03/30 01:59:28;;;;;;;1.23;0.80;;;21.00;34.10;;;;;;5093336;28;20052;-79
2022/03/30 02:01:54;;;;;;;0.93;0.80;;;21.00;34.10;;;;;;5075039;28;20056;-79
2022/03/30 02:04:19;;;;;;;0.93;0.80;;;21.00;34.00;;;;;;5075576;28;20052;-79
2022/03/30 02:06:45;;;;;;;1.45;0.98;;;21.00;34.10;;;;;;5075180;28;20418;-79
2022/03/30 02:09:12;;;;;;;1.23;0.90;;;21.00;34.10;;;;;;5093277;28;20086;-79
2022/03/30 02:11:38;;;;;;;1.38;0.80;;;21.00;34.10;;;;;;5093234;28;20134;-79
2022/03/30 02:14:04;;;;;;;1.40;0.90;;;21.00;34.10;;;;;;5093164;28;20484;-79
2022/03/30 02:16:30;;;;;;;1.67;0.70;;;21.00;34.00;;;;;;5093149;28;20525;-79
2022/03/30 02:18:56;;;;;;;1.52;0.70;;;21.00;34.00;;;;;;5092861;28;20073;-79
2022/03/30 02:21:22;;;;;;;0.60;0.50;;;21.10;34.00;;;;;;5092993;28;20423;-79
2022/03/30 02:23:47;;;;;;;1.00;0.60;;;21.10;33.90;;;;;;5091776;28;20048;-79
2022/03/30 02:26:15;;;;;;;1.20;0.70;;;21.10;33.90;;;;;;5074837;28;20059;-79
2022/03/30 02:28:42;;;;;;;1.85;0.90;;;21.10;33.90;;;;;;5092825;28;20044;-79
2022/03/30 02:31:11;;;;;;;0.85;0.80;;;21.10;33.90;;;;;;5074669;28;20052;-79
2022/03/30 02:33:37;;;;;;;1.95;0.70;;;21.10;33.90;;;;;;5092899;28;20056;-79
2022/03/30 02:36:04;;;;;;;0.70;0.70;;;21.10;33.90;;;;;;5073990;28;20048;-79
2022/03/30 02:38:30;;;;;;;0.80;0.80;;;21.10;33.80;;;;;;5092646;28;20131;-79
2022/03/30 02:40:55;;;;;;;0.75;0.68;;;21.20;33.90;;;;;;5092786;28;20131;-79
2022/03/30 02:43:21;;;;;;;1.52;0.95;;;21.20;33.90;;;;;;5073132;28;20102;-79
2022/03/30 02:45:47;;;;;;;1.58;0.68;;;21.20;33.80;;;;;;5074926;28;20426;-79
2022/03/30 02:48:19;;;;;;;1.45;0.70;;;21.20;33.80;;;;;;5056962;28;20466;-79
2022/03/30 02:50:49;;;;;;;0.93;0.80;;;21.20;33.80;;;;;;5092957;28;20056;-79
2022/03/30 02:53:16;;;;;;;0.88;0.77;;;21.20;33.80;;;;;;5074167;28;20060;-79
2022/03/30 02:55:41;;;;;;;0.73;0.68;;;21.20;33.80;;;;;;5092594;28;20048;-79
2022/03/30 02:58:08;;;;;;;1.42;0.80;;;21.20;33.70;;;;;;5092047;28;20052;-79
2022/03/30 03:00:34;;;;;;;0.65;0.50;;;21.20;33.80;;;;;;5092571;28;20048;-79
2022/03/30 03:03:02;;;;;;;1.30;0.63;;;21.30;33.80;;;;;;5073393;28;20056;-79
2022/03/30 03:05:32;;;;;;;0.60;0.50;;;21.30;33.80;;;;;;5074283;28;20231;-79
2022/03/30 03:07:58;;;;;;;0.63;0.60;;;21.30;33.80;;;;;;5072526;28;20059;-79
2022/03/30 03:10:25;;;;;;;1.67;0.90;;;21.30;33.80;;;;;;5092805;28;20381;-78
2022/03/30 03:12:51;;;;;;;2.35;0.57;;;21.30;33.80;;;;;;5074172;28;20048;-79
2022/03/30 03:15:17;;;;;;;1.52;0.70;;;21.30;33.80;;;;;;5092610;28;20365;-79
2022/03/30 03:17:42;;;;;;;1.83;1.00;;;21.20;33.80;;;;;;5092411;28;20060;-79
2022/03/30 03:20:09;;;;;;;1.67;0.80;;;21.20;33.80;;;;;;5092237;28;20510;-79
2022/03/30 03:22:34;;;;;;;0.95;0.70;;;21.20;33.80;;;;;;5092240;28;20518;-79
2022/03/30 03:25:00;;;;;;;1.00;0.80;;;21.20;33.80;;;;;;5092837;28;20091;-78
2022/03/30 03:27:25;;;;;;;0.75;0.68;;;21.20;33.80;;;;;;5092315;28;20048;-79
2022/03/30 03:29:51;;;;;;;0.65;0.52;;;21.20;33.80;;;;;;5092397;28;20518;-79
2022/03/30 03:32:16;;;;;;;1.20;0.85;;;21.20;33.80;;;;;;5092199;28;20087;-78
2022/03/30 03:34:42;;;;;;;1.30;0.70;;;21.20;33.80;;;;;;5092382;28;20048;-79
2022/03/30 03:37:08;;;;;;;1.13;0.77;;;21.20;33.80;;;;;;5091881;28;20040;-79
2022/03/30 03:39:33;;;;;;;0.98;0.60;;;21.20;33.80;;;;;;5091968;28;20097;-79
2022/03/30 03:41:59;;;;;;;2.05;0.98;;;21.20;33.80;;;;;;5092042;28;20051;-78
2022/03/30 03:44:25;;;;;;;2.13;0.70;;;21.20;33.80;;;;;;5092299;28;20052;-79
2022/03/30 03:46:50;;;;;;;0.93;0.85;;;21.20;33.80;;;;;;5092592;28;20048;-79
2022/03/30 03:49:16;;;;;;;1.55;0.93;;;21.20;33.70;;;;;;5095323;28;20480;-79
2022/03/30 03:51:42;;;;;;;0.60;0.50;;;21.20;33.70;;;;;;5077286;28;20070;-79
2022/03/30 03:54:07;;;;;;;1.38;0.70;;;21.20;33.80;;;;;;5095237;28;20052;-79
2022/03/30 03:56:33;;;;;;;0.75;0.70;;;21.20;33.80;;;;;;5077234;28;20051;-79
2022/03/30 03:58:58;;;;;;;1.67;0.80;;;21.20;33.80;;;;;;5095251;28;20051;-79
2022/03/30 04:01:24;;;;;;;2.28;1.00;;;21.20;33.80;;;;;;5095219;28;20067;-78
2022/03/30 04:03:49;;;;;;;0.70;0.60;;;21.20;33.80;;;;;;5095201;28;20071;-78
2022/03/30 04:06:15;;;;;;;1.42;0.82;;;21.20;33.80;;;;;;5076925;28;20070;-78
2022/03/30 04:08:41;;;;;;;1.33;0.95;;;21.20;33.80;;;;;;5095147;28;20047;-78
2022/03/30 04:11:07;;;;;;;0.93;0.80;;;21.20;33.80;;;;;;5094962;28;20412;-78
2022/03/30 04:13:32;;;;;;;0.77;0.60;;;21.20;33.80;;;;;;5095111;28;20144;-78
2022/03/30 04:15:58;;;;;;;1.10;0.70;;;21.20;33.80;;;;;;5076961;28;20408;-78
2022/03/30 04:18:24;;;;;;;1.60;0.80;;;21.20;33.80;;;;;;5075278;28;20550;-78
2022/03/30 04:20:49;;;;;;;0.85;0.60;;;21.20;33.80;;;;;;5094819;28;20507;-78
2022/03/30 04:23:15;;;;;;;0.95;0.80;;;21.20;33.80;;;;;;5094633;28;20407;-78
2022/03/30 04:25:40;;;;;;;2.22;0.95;;;21.20;33.80;;;;;;5094861;28;20124;-78
2022/03/30 04:28:06;;;;;;;0.85;0.70;;;21.20;33.70;;;;;;5094592;28;20059;-78
2022/03/30 04:30:32;;;;;;;0.60;0.60;;;21.20;33.80;;;;;;5076576;28;20048;-78
2022/03/30 04:32:58;;;;;;;2.08;0.80;;;21.20;33.80;;;;;;5076799;28;20052;-78
2022/03/30 04:35:26;;;;;;;0.80;0.60;;;21.20;33.80;;;;;;5094688;28;20131;-78
2022/03/30 04:37:56;;;;;;;1.20;0.63;;;21.20;33.80;;;;;;5094402;28;20048;-77
2022/03/30 04:40:24;;;;;;;0.70;0.70;;;21.20;33.80;;;;;;5094567;28;20553;-78
2022/03/30 04:42:50;;;;;;;0.82;0.73;;;21.20;33.80;;;;;;5076227;28;20055;-78
2022/03/30 04:45:17;;;;;;;1.92;0.90;;;21.20;33.80;;;;;;5094556;28;20079;-78
2022/03/30 04:47:42;;;;;;;0.90;0.65;;;21.20;33.80;;;;;;5058479;28;20044;-78
2022/03/30 04:50:09;;;;;;;0.57;0.57;;;21.20;33.80;;;;;;5074220;28;20102;-78
2022/03/30 04:52:36;;;;;;;1.30;0.60;;;21.20;33.80;;;;;;5094540;28;20121;-78
2022/03/30 04:55:02;;;;;;;0.98;0.70;;;21.10;33.80;;;;;;5076216;28;20403;-78
2022/03/30 04:57:28;;;;;;;0.70;0.63;;;21.20;33.80;;;;;;5094306;28;20040;-78
2022/03/30 04:59:53;;;;;;;1.42;0.75;;;21.10;33.80;;;;;;5075596;28;20499;-78
2022/03/30 05:02:19;;;;;;;1.05;0.60;;;21.20;33.80;;;;;;5094371;28;20087;-78
2022/03/30 05:04:45;;;;;;;1.00;0.68;;;21.20;33.90;;;;;;5076630;28;20043;-79
2022/03/30 05:07:10;;;;;;;0.93;0.82;;;21.20;33.80;;;;;;5094091;28;20059;-79
2022/03/30 05:09:36;;;;;;;1.42;0.70;;;21.20;33.80;;;;;;5094170;28;20070;-79
2022/03/30 05:12:02;;;;;;;0.90;0.68;;;21.20;33.80;;;;;;5094452;28;20101;-79
2022/03/30 05:14:27;;;;;;;0.90;0.57;;;21.20;33.80;;;;;;5075960;28;20056;-79
2022/03/30 05:16:53;;;;;;;1.38;0.73;;;21.20;33.80;;;;;;5075882;28;20051;-79
2022/03/30 05:19:19;;;;;;;1.08;0.70;;;21.20;33.80;;;;;;5093968;28;20040;-79
2022/03/30 05:21:45;;;;;;;1.65;0.60;;;21.20;33.80;;;;;;5059056;28;20052;-79
2022/03/30 05:24:11;;;;;;;0.75;0.65;;;21.20;33.80;;;;;;5094188;28;20093;-79
2022/03/30 05:26:36;;;;;;;2.35;0.90;;;21.20;33.80;;;;;;5093948;28;20067;-79
2022/03/30 05:29:02;;;;;;;0.98;0.82;;;21.20;33.80;;;;;;5093965;28;20480;-79
2022/03/30 05:31:28;;;;;;;1.10;0.73;;;21.20;33.80;;;;;;5076044;28;20480;-79
2022/03/30 05:33:53;;;;;;;1.40;0.88;;;21.20;33.80;;;;;;5093690;28;20101;-79
2022/03/30 05:36:19;;;;;;;1.00;0.90;;;21.20;33.80;;;;;;5074450;28;20052;-78
2022/03/30 05:38:45;;;;;;;0.90;0.60;;;21.20;33.80;;;;;;5093893;28;20135;-79
2022/03/30 05:41:11;;;;;;;0.88;0.50;;;21.20;33.80;;;;;;5093965;28;20055;-79
2022/03/30 05:43:37;;;;;;;0.80;0.70;;;21.20;33.80;;;;;;5075483;28;20056;-79
2022/03/30 05:46:03;;;;;;;0.60;0.60;;;21.20;33.80;;;;;;5093572;28;20044;-79
2022/03/30 05:48:28;;;;;;;0.63;0.60;;;21.20;33.80;;;;;;5093875;28;20117;-79
2022/03/30 05:50:55;;;;;;;0.77;0.75;;;21.20;33.70;;;;;;5093759;28;20063;-79
2022/03/30 05:53:21;;;;;;;1.05;0.70;;;21.20;33.80;;;;;;5093315;28;20052;-79
2022/03/30 05:55:46;;;;;;;1.73;0.50;;;21.20;33.80;;;;;;5075066;28;20135;-79
2022/03/30 05:58:15;;;;;;;1.00;0.70;;;21.20;33.70;;;;;;5092738;28;20134;-79
2022/03/30 06:00:41;;;;;;;1.17;0.80;;;21.20;33.70;;;;;;5093518;28;20056;-79
2022/03/30 06:03:07;;;;;;;1.67;0.88;;;21.20;33.70;;;;;;5072806;28;20059;-79
2022/03/30 06:05:33;;;;;;;0.93;0.50;;;21.20;33.70;;;;;;5075091;28;20055;-79
2022/03/30 06:07:59;;;;;;;1.50;0.82;;;21.20;33.70;;;;;;5074582;28;20048;-79
2022/03/30 06:10:26;;;;;;;1.23;0.80;;;21.20;33.60;;;;;;5092739;28;20143;-79
2022/03/30 06:12:53;;;;;;;0.93;0.70;;;21.20;33.60;;;;;;5074535;28;20499;-78
2022/03/30 06:15:19;;;;;;;0.82;0.75;;;21.30;33.60;;;;;;5074372;28;20135;-78
2022/03/30 06:17:46;;;;;;;2.03;0.90;;;21.20;33.60;;;;;;5092122;28;20059;-79
2022/03/30 06:20:13;;;;;;;0.70;0.50;;;21.20;33.60;;;;;;5072729;28;20048;-79
2022/03/30 06:22:43;;;;;;;1.77;0.68;;;21.20;33.70;;;;;;5092475;28;20048;-79
2022/03/30 06:25:11;;;;;;;1.60;0.80;;;21.20;33.60;;;;;;5072508;28;20495;-79
2022/03/30 06:27:38;;;;;;;0.95;0.70;;;21.20;33.60;;;;;;5057442;28;20056;-79
2022/03/30 06:30:05;;;;;;;2.47;0.70;;;21.20;33.60;;;;;;5092557;28;20135;-79
2022/03/30 06:32:31;;;;;;;0.52;0.50;;;21.30;33.60;;;;;;5091199;28;20048;-79
2022/03/30 06:34:57;;;;;;;2.90;0.88;;;21.20;33.60;;;;;;5074616;28;20484;-79
2022/03/30 06:37:23;;;;;;;1.52;0.60;;;21.20;33.60;;;;;;5092320;28;20139;-79
2022/03/30 06:39:49;;;;;;;1.35;0.60;;;21.20;33.60;;;;;;5092374;28;20121;-79
2022/03/30 06:42:16;;;;;;;1.20;0.63;;;21.20;33.60;;;;;;5092552;28;20166;-79
2022/03/30 06:44:42;;;;;;;1.85;0.88;;;21.20;33.60;;;;;;5072528;28;20131;-79
2022/03/30 06:47:08;;;;;;;1.00;0.70;;;21.20;33.60;;;;;;5092401;28;20051;-79
2022/03/30 06:49:35;;;;;;;0.98;0.70;;;21.20;34.10;;;;;;5074168;28;20089;-78
2022/03/30 06:52:01;;;;;;;1.90;0.80;;;21.20;33.70;;;;;;5074181;28;20052;-79
2022/03/30 06:54:26;;;;;;;0.65;0.65;;;21.20;33.60;;;;;;5074141;28;20437;-79
2022/03/30 06:56:52;;;;;;;1.40;0.75;;;21.20;33.60;;;;;;5092348;28;20052;-79
2022/03/30 06:59:18;;;;;;;1.23;0.90;;;21.20;33.60;;;;;;5092193;28;20048;-79
2022/03/30 07:01:44;;;;;;;1.30;0.80;;;21.20;33.60;;;;;;5074279;28;20059;-79
2022/03/30 07:04:10;;;;;;;1.00;0.70;;;21.20;34.10;;;;;;5091915;28;20139;-79
2022/03/30 07:06:36;;;;;;;1.08;0.80;;;21.30;33.60;;;;;;5074249;28;20048;-79
2022/03/30 07:11:46;;;;;;;0.82;0.60;;;21.30;33.60;;;;;;5092108;28;20461;-79
2022/03/30 07:14:11;;;;;;;1.23;0.90;;;21.30;33.60;;;;;;5091890;28;20100;-79
2022/03/30 07:16:37;;;;;;;0.68;0.68;;;21.30;33.60;;;;;;5091979;28;20078;-79
2022/03/30 07:19:03;;;;;;;0.90;0.70;;;21.30;33.60;;;;;;5091778;28;20127;-79
2022/03/30 07:21:28;;;;;;;1.55;0.70;;;21.30;33.60;;;;;;5073898;28;20051;-79
2022/03/30 07:23:54;;;;;;;1.25;0.77;;;21.30;33.60;;;;;;5076602;28;20167;-79
2022/03/30 07:26:20;;;;;;;2.70;0.90;;;21.30;34.10;;;;;;5060472;28;20072;-79
2022/03/30 07:28:45;;;;;;;4.13;0.88;;;21.30;33.60;;;;;;5077045;28;20063;-79
2022/03/30 07:31:11;;;;;;;2.17;0.60;;;21.30;33.60;;;;;;5076364;28;20101;-79
2022/03/30 07:33:37;;;;;;;0.77;0.52;;;21.30;33.60;;;;;;5076844;28;20105;-79
2022/03/30 07:36:03;;;;;;;2.22;0.80;;;21.30;33.60;;;;;;5076856;28;20077;-79
2022/03/30 07:38:29;;;;;;;1.20;0.75;;;21.30;33.60;;;;;;5094840;28;20077;-79
2022/03/30 07:40:55;;;;;;;1.58;0.73;;;21.30;33.60;;;;;;5095163;28;20139;-79
2022/03/30 07:43:21;;;;;;;1.02;0.73;;;21.30;33.60;;;;;;5058375;28;20052;-79
2022/03/30 07:45:47;;;;;;;2.50;1.10;;;21.30;33.50;;;;;;5094413;28;20052;-79
2022/03/30 07:48:13;;;;;;;0.80;0.70;;;21.30;33.50;;;;;;5094722;28;20073;-79
2022/03/30 07:50:39;;;;;;;1.58;0.85;;;21.30;33.50;;;;;;5094799;28;20407;-79
2022/03/30 07:53:07;;;;;;;1.08;0.75;;;21.30;33.50;;;;;;5076344;28;20052;-79
2022/03/30 07:55:34;;;;;;;1.00;0.90;;;21.30;33.50;;;;;;5093558;28;20442;-79
2022/03/30 07:58:00;;;;;;;2.10;0.80;;;21.30;33.50;;;;;;5075152;28;20044;-79
2022/03/30 08:00:27;;;;;;;1.45;0.75;;;21.30;33.50;;;;;;5093224;28;20059;-79
2022/03/30 08:02:52;;;;;;;3.28;0.80;;;21.30;33.50;;;;;;5094468;28;20059;-79
2022/03/30 08:05:18;;;;;;;1.17;0.70;;;21.30;33.40;;;;;;5057757;28;20056;-79
2022/03/30 08:07:46;;;;;;;1.20;0.85;;;21.40;33.50;;;;;;5092137;28;20411;-79
2022/03/30 08:10:12;;;;;;;3.28;0.90;;;21.30;33.40;;;;;;5092252;28;20180;-79
2022/03/30 08:12:40;;;;;;;1.55;0.88;;;21.40;33.50;;;;;;5092766;28;20119;-79
2022/03/30 08:15:06;;;;;;;1.85;0.77;;;21.40;33.40;;;;;;5093048;28;20059;-80
2022/03/30 08:17:32;;;;;;;1.02;0.70;;;21.40;33.50;;;;;;5074517;28;20083;-79
2022/03/30 08:19:59;;;;;;;1.65;0.75;;;21.40;33.40;;;;;;5072040;28;20419;-79
2022/03/30 08:22:28;;;;;;;1.73;0.95;;;21.40;33.40;;;;;;5070365;28;20110;-80
2022/03/30 08:24:55;;;;;;;1.20;0.80;;;21.40;33.40;;;;;;5092826;28;20052;-79
2022/03/30 08:27:24;;;;;;;0.88;0.77;;;21.40;33.40;;;;;;5074921;28;20063;-79
2022/03/30 08:29:52;;;;;;;1.63;0.75;;;21.40;33.40;;;;;;5074468;28;20388;-80
2022/03/30 08:32:18;;;;;;;1.67;0.85;;;21.40;33.40;;;;;;5093567;28;20048;-80
2022/03/30 08:34:44;;;;;;;3.10;1.00;;;21.40;33.40;;;;;;5074364;28;20048;-79
2022/03/30 08:37:11;;;;;;;1.73;0.88;;;21.40;33.50;;;;;;5094143;28;20372;-79
2022/03/30 08:39:37;;;;;;;2.35;0.80;;;21.40;33.50;;;;;;5094115;28;20087;-79
2022/03/30 08:42:05;;;;;;;2.42;1.00;;;21.40;33.50;;;;;;5075548;28;20572;-79
2022/03/30 08:44:34;;;;;;;2.08;0.95;;;21.40;33.50;;;;;;5075822;28;20457;-79
2022/03/30 08:47:00;;;;;;;2.80;0.80;;;21.30;33.50;;;;;;5094357;28;20135;-79
2022/03/30 08:49:27;;;;;;;3.50;0.82;;;21.40;33.50;;;;;;5075481;28;20059;-79
2022/03/30 08:51:55;;;;;;;2.60;0.98;;;21.40;33.50;;;;;;5093846;28;20067;-80
2022/03/30 08:54:20;;;;;;;2.35;1.00;;;21.40;33.50;;;;;;5093947;28;20056;-79
2022/03/30 08:56:46;;;;;;;1.23;0.88;;;21.40;34.00;;;;;;5093903;28;20403;-79
2022/03/30 08:59:19;;;;;;;1.48;0.63;;;21.30;33.40;;;;;;5093362;28;20044;-79
2022/03/30 09:01:46;;;;;;;2.83;0.90;;;21.40;33.40;;;;;;5075407;28;20089;-79
2022/03/30 09:04:13;;;;;;;1.73;0.75;;;21.40;33.40;;;;;;5075501;28;20063;-79
2022/03/30 09:06:50;;;;;;;3.03;1.00;;;21.40;33.40;;;;;;5075243;28;20040;-79
2022/03/30 09:09:26;;;;;;;1.42;0.70;;;21.40;33.40;;;;;;5093782;28;20135;-79
2022/03/30 09:11:55;;;;;;;1.70;0.93;;;21.40;33.40;;;;;;5093576;28;20085;-79
2022/03/30 09:14:23;;;;;;;1.70;1.00;;;21.40;33.40;;;;;;5074086;28;20056;-79
2022/03/30 09:16:51;;;;;;;3.25;0.88;;;21.40;33.30;;;;;;5075347;28;20208;-80
2022/03/30 09:19:20;;;;;;;2.10;0.80;;;21.40;33.30;;;;;;5093264;28;20557;-79
2022/03/30 09:21:50;;;;;;;1.65;0.80;;;21.40;33.30;;;;;;5075139;28;20147;-79
2022/03/30 09:24:19;;;;;;;1.73;0.93;;;21.40;33.30;;;;;;5093418;28;20054;-79
2022/03/30 09:26:46;;;;;;;1.35;0.88;;;21.40;33.30;;;;;;5075106;28;20063;-79
2022/03/30 09:29:13;;;;;;;2.53;1.02;;;21.40;33.30;;;;;;5074386;28;20512;-80
2022/03/30 09:31:39;;;;;;;3.50;1.50;;;21.40;33.30;;;;;;5093196;28;20075;-79
2022/03/30 09:34:07;;;;;;;2.72;1.02;;;21.40;33.30;;;;;;5093364;28;20105;-79
2022/03/30 09:36:41;;;;;;;2.05;1.15;;;21.40;33.30;;;;;;5075475;28;20090;-80
2022/03/30 09:39:25;;;;;;;2.00;1.10;;;21.40;33.30;;;;;;5058473;28;20131;-79
2022/03/30 09:41:53;;;;;;;2.03;0.90;;;21.50;33.40;;;;;;5056887;28;20052;-79
2022/03/30 09:44:20;;;;;;;3.10;1.25;;;21.50;33.30;;;;;;5092814;28;20538;-80
2022/03/30 09:47:06;;;;;;;1.25;0.70;;;21.50;33.30;;;;;;5093223;28;20048;-80
2022/03/30 09:49:40;;;;;;;4.35;1.40;;;21.50;33.30;;;;;;5058302;28;20515;-79
2022/03/30 09:52:10;;;;;;;2.63;1.10;;;21.50;33.30;;;;;;5093627;28;20107;-79
2022/03/30 09:54:41;;;;;;;1.63;0.85;;;21.50;33.40;;;;;;5093260;28;20056;-79
2022/03/30 09:57:12;;;;;;;1.42;0.98;;;21.50;33.30;;;;;;5073171;28;20075;-79
2022/03/30 09:59:57;;;;;;;2.15;1.08;;;21.50;33.30;;;;;;5092885;28;20157;-79
2022/03/30 10:02:22;;;;;;;2.08;1.00;;;21.50;33.30;;;;;;5075029;28;20071;-80
2022/03/30 10:04:49;;;;;;;2.72;1.10;;;21.50;33.30;;;;;;5092992;28;20056;-80
2022/03/30 10:07:15;;;;;;;1.42;0.85;;;21.40;33.30;;;;;;5092721;28;20044;-80
2022/03/30 10:09:42;;;;;;;4.45;1.00;;;21.50;33.30;;;;;;5091507;28;20051;-80
2022/03/30 10:12:08;;;;;;;1.60;0.98;;;21.40;33.30;;;;;;5073173;28;20096;-79
2022/03/30 10:14:36;;;;;;;1.58;1.08;;;21.40;33.30;;;;;;5092742;28;20128;-79
2022/03/30 10:17:01;;;;;;;2.42;1.27;;;21.40;33.90;;;;;;5092698;28;20051;-79
2022/03/30 10:19:28;;;;;;;2.05;1.08;;;21.40;33.30;;;;;;5091190;28;20098;-80
2022/03/30 10:22:19;;;;;;;2.03;1.00;;;21.50;33.30;;;;;;5090465;28;20173;-80
2022/03/30 10:25:05;;;;;;;5.00;1.30;;;21.50;33.40;;;;;;5072037;28;20072;-80
2022/03/30 10:28:06;;;;;;;1.45;0.90;;;21.50;33.30;;;;;;5090818;28;20556;-80
2022/03/30 10:30:32;;;;;;;2.33;0.93;;;21.50;33.30;;;;;;5077487;28;20052;-80
2022/03/30 10:33:01;;;;;;;3.17;1.33;;;21.50;33.30;;;;;;5073877;28;20101;-80
2022/03/30 10:35:48;;;;;;;2.65;1.30;;;21.50;33.30;;;;;;5090337;28;20063;-80
2022/03/30 10:38:16;;;;;;;3.80;1.30;;;21.50;33.30;;;;;;5072070;28;20135;-80
2022/03/30 10:40:43;;;;;;;2.20;0.90;;;21.50;33.30;;;;;;5090117;28;20059;-80
2022/03/30 10:43:23;;;;;;;2.63;1.10;;;21.50;33.30;;;;;;5091052;28;20056;-80
2022/03/30 10:45:56;;;;;;;1.98;1.08;;;21.50;33.30;;;;;;5092511;28;20051;-79
2022/03/30 10:48:28;;;;;;;2.35;1.00;;;21.50;33.30;;;;;;5074447;28;20056;-79
2022/03/30 10:50:55;;;;;;;2.88;1.20;;;21.50;33.20;;;;;;5074419;28;20066;-79
2022/03/30 10:53:30;;;;;;;3.63;1.35;;;21.60;33.20;;;;;;5073719;28;20095;-79
2022/03/30 10:56:14;;;;;;;1.50;0.90;;;21.60;33.20;;;;;;5091958;28;20503;-79
2022/03/30 10:58:49;;;;;;;2.92;1.30;;;21.60;33.10;;;;;;5074214;28;20048;-79
2022/03/30 11:01:44;;;;;;;2.55;0.82;;;21.70;33.10;;;;;;5088408;28;20059;-79
2022/03/30 11:04:18;;;;;;;3.83;1.10;;;21.70;33.10;;;;;;5087464;28;20060;-79
2022/03/30 11:06:47;;;;;;;1.38;0.90;;;21.70;33.10;;;;;;5073776;28;20055;-80
2022/03/30 11:09:26;;;;;;;1.88;1.05;;;21.70;33.10;;;;;;5089664;28;20059;-80
2022/03/30 11:12:03;;;;;;;1.67;1.08;;;21.70;33.60;;;;;;5089841;28;20427;-80
2022/03/30 11:14:36;;;;;;;3.72;1.25;;;21.70;33.10;;;;;;5071554;28;20510;-80
2022/03/30 11:17:29;;;;;;;3.83;1.10;;;21.70;33.10;;;;;;5089918;28;20101;-80
2022/03/30 11:19:58;;;;;;;4.15;1.50;;;21.70;33.00;;;;;;5087990;28;20192;-80
2022/03/30 11:22:39;;;;;;;3.13;1.10;;;21.70;33.10;;;;;;5090054;28;20047;-79
2022/03/30 11:25:19;;;;;;;1.90;0.90;;;21.70;33.10;;;;;;5092334;28;20056;-79
2022/03/30 11:28:05;;;;;;;3.55;1.23;;;21.60;33.10;;;;;;5092036;28;20105;-79
2022/03/30 11:30:37;;;;;;;1.92;1.13;;;21.70;33.10;;;;;;5073527;28;20048;-79
2022/03/30 11:33:02;;;;;;;;;;;21.70;33.10;;;;;;5072257;28;20058;-80
2022/03/30 11:35:34;;;;;;;3.30;1.00;;;21.70;33.10;;;;;;5092191;28;19935;-79
2022/03/30 11:38:06;;;;;;;3.70;1.77;;;21.70;33.00;;;;;;5092152;28;20048;-79
2022/03/30 11:40:41;;;;;;;3.45;1.40;;;21.70;33.00;;;;;;5056975;28;20054;-79
2022/03/30 11:43:08;;;;;;;1.77;0.90;;;21.70;33.00;;;;;;5072200;28;20057;-79
2022/03/30 11:45:34;;;;;;;2.53;1.13;;;21.70;33.00;;;;;;5091273;28;20056;-80
2022/03/30 11:48:06;;;;;;;3.28;1.30;;;21.70;33.00;;;;;;5073509;28;20415;-79
2022/03/30 11:50:39;;;;;;;3.15;1.23;;;21.70;33.10;;;;;;5057099;28;20087;-79
2022/03/30 11:53:09;;;;;;;3.20;1.48;;;21.70;33.10;;;;;;5056755;28;20048;-79
2022/03/30 11:55:55;;;;;;;1.60;0.88;;;21.70;33.10;;;;;;5091585;28;20099;-79
2022/03/30 11:58:39;;;;;;;4.93;1.52;;;21.60;33.10;;;;;;5091292;28;20438;-79
2022/03/30 12:01:16;;;;;;;4.30;1.30;;;21.60;33.10;;;;;;5073186;28;20091;-79
2022/03/30 12:03:42;;;;;;;4.15;1.45;;;21.60;33.10;;;;;;5091562;28;20101;-79
2022/03/30 12:06:11;;;;;;;3.05;1.38;;;21.60;33.20;;;;;;5073209;28;20059;-79
2022/03/30 12:08:45;;;;;;;3.13;1.02;;;21.60;33.20;;;;;;5093353;28;20070;-79
2022/03/30 12:11:13;;;;;;;2.03;1.17;;;21.60;33.20;;;;;;5094923;28;20056;-79
2022/03/30 12:13:39;;;;;;;3.35;1.20;;;21.60;33.20;;;;;;5095045;28;20078;-79
2022/03/30 12:16:13;;;;;;;3.65;1.20;;;21.60;33.10;;;;;;5077025;28;20060;-79
2022/03/30 12:18:49;;;;;;;3.40;1.00;;;21.60;33.10;;;;;;5060120;28;20044;-79
2022/03/30 12:21:22;;;;;;;3.25;1.30;;;21.60;33.10;;;;;;5076718;28;20131;-79
2022/03/30 12:24:04;;;;;;;3.45;1.20;;;21.60;33.10;;;;;;5076664;28;20052;-79
2022/03/30 12:26:31;;;;;;;2.45;1.60;;;21.70;33.20;;;;;;5094782;28;20052;-79
2022/03/30 12:29:09;;;;;;;2.38;1.20;;;21.70;33.10;;;;;;5094417;28;20040;-79
2022/03/30 12:31:40;;;;;;;2.88;1.15;;;21.70;33.10;;;;;;5094852;28;20131;-79
2022/03/30 12:34:11;;;;;;;1.67;1.08;;;21.70;33.10;;;;;;5076567;28;20413;-79
2022/03/30 12:36:48;;;;;;;1.42;1.05;;;21.70;33.10;;;;;;5094539;28;20051;-79
2022/03/30 12:39:20;;;;;;;1.75;1.10;;;21.70;33.10;;;;;;5093230;28;20101;-79
2022/03/30 12:41:57;;;;;;;;;;;21.70;33.10;;;;;;5095046;28;20044;-79
2022/03/30 12:44:26;;;;;;;1.85;1.23;;;21.70;33.10;;;;;;5094720;28;19916;-78
2022/03/30 12:46:52;;;;;;;3.20;1.55;;;21.70;33.00;;;;;;5094428;28;20048;-79
2022/03/30 12:49:17;;;;;;;2.88;1.15;;;21.70;33.00;;;;;;5094332;28;20488;-79
2022/03/30 12:51:43;;;;;;;1.75;1.00;;;21.70;33.10;;;;;;5094127;28;20086;-79
2022/03/30 12:54:21;;;;;;;3.63;1.27;;;21.70;33.10;;;;;;5092108;28;20069;-79
2022/03/30 12:56:47;;;;;;;1.73;1.08;;;21.70;33.60;;;;;;5092642;28;20077;-79
2022/03/30 12:59:19;;;;;;;2.30;0.88;;;21.70;33.10;;;;;;5094447;28;20078;-79